createdAt,value
2019-05-03T00:00:42.539Z,0.00
2019-05-03T00:01:41.989Z,0.00
2019-05-03T00:02:41.707Z,0.00
2019-05-03T00:03:42.490Z,0.00
2019-05-03T00:04:42.212Z,0.00
2019-05-03T00:05:41.794Z,0.00
2019-05-03T00:06:42.600Z,0.00
2019-05-03T00:07:42.070Z,0.00
2019-05-03T00:08:41.474Z,0.00
2019-05-03T00:09:42.498Z,0.00
2019-05-03T00:10:42.440Z,0.00
2019-05-03T00:11:42.177Z,0.00
2019-05-03T00:12:42.166Z,0.00
2019-05-03T00:13:41.904Z,0.00
2019-05-03T00:14:41.705Z,0.00
2019-05-03T00:15:40.557Z,0.00
2019-05-03T00:16:41.669Z,0.00
2019-05-03T00:17:41.994Z,0.00
2019-05-03T00:18:42.171Z,0.00
2019-05-03T00:19:42.214Z,0.00
2019-05-03T00:20:42.032Z,0.00
2019-05-03T00:21:41.970Z,0.00
2019-05-03T00:22:41.906Z,0.00
2019-05-03T00:23:41.812Z,0.00
2019-05-03T00:24:42.437Z,0.00
2019-05-03T00:25:41.810Z,0.00
2019-05-03T00:26:42.219Z,0.00
2019-05-03T00:27:40.442Z,0.00
2019-05-03T00:28:40.404Z,0.00
2019-05-03T00:29:41.758Z,0.00
2019-05-03T00:30:42.281Z,0.00
2019-05-03T00:31:42.218Z,0.00
2019-05-03T00:32:40.379Z,0.00
2019-05-03T00:33:42.172Z,0.00
2019-05-03T00:34:41.809Z,0.00
2019-05-03T00:35:42.365Z,0.00
2019-05-03T00:36:41.915Z,0.00
2019-05-03T00:37:41.995Z,0.00
2019-05-03T00:38:41.882Z,0.00
2019-05-03T00:39:41.831Z,0.00
2019-05-03T00:40:41.687Z,0.00
2019-05-03T00:41:40.259Z,0.00
2019-05-03T00:42:42.281Z,0.00
2019-05-03T00:43:42.251Z,0.00
2019-05-03T00:44:42.123Z,0.00
2019-05-03T00:45:42.126Z,0.00
2019-05-03T00:46:42.106Z,0.00
2019-05-03T00:47:42.163Z,0.00
2019-05-03T00:48:40.229Z,0.00
2019-05-03T00:49:40.175Z,0.00
2019-05-03T00:50:40.172Z,0.00
2019-05-03T00:51:42.380Z,0.00
2019-05-03T00:52:42.238Z,0.00
2019-05-03T00:53:42.381Z,0.00
2019-05-03T00:54:42.211Z,0.00
2019-05-03T00:55:41.878Z,0.00
2019-05-03T00:56:43.969Z,0.00
2019-05-03T00:57:41.557Z,0.00
2019-05-03T00:58:41.873Z,0.00
2019-05-03T00:59:41.923Z,0.00
2019-05-03T01:00:41.755Z,0.00
2019-05-03T01:01:40.051Z,0.00
2019-05-03T01:02:40.026Z,0.00
2019-05-03T01:03:41.812Z,0.00
2019-05-03T01:04:40.003Z,0.00
2019-05-03T01:05:39.998Z,0.00
2019-05-03T01:06:39.985Z,0.00
2019-05-03T01:07:42.140Z,0.00
2019-05-03T01:08:41.861Z,0.00
2019-05-03T01:09:39.959Z,0.00
2019-05-03T01:10:39.947Z,0.00
2019-05-03T01:11:41.723Z,0.00
2019-05-03T01:12:41.607Z,0.00
2019-05-03T01:13:39.928Z,0.00
2019-05-03T01:14:39.922Z,0.00
2019-05-03T01:15:39.880Z,0.00
2019-05-03T01:16:39.876Z,0.00
2019-05-03T01:17:41.903Z,0.00
2019-05-03T01:18:41.292Z,0.00
2019-05-03T01:19:39.839Z,0.00
2019-05-03T01:20:39.832Z,0.00
2019-05-03T01:21:39.815Z,0.00
2019-05-03T01:22:39.808Z,0.00
2019-05-03T01:23:41.840Z,0.00
2019-05-03T01:24:39.784Z,0.00
2019-05-03T01:25:39.768Z,0.00
2019-05-03T01:26:39.782Z,0.00
2019-05-03T01:27:39.749Z,0.00
2019-05-03T01:28:39.752Z,0.00
2019-05-03T01:29:39.730Z,0.00
2019-05-03T01:30:39.725Z,0.00
2019-05-03T01:31:39.716Z,0.00
2019-05-03T01:32:41.719Z,0.00
2019-05-03T01:33:39.707Z,0.00
2019-05-03T01:34:41.530Z,0.00
2019-05-03T01:35:39.665Z,0.00
2019-05-03T01:36:39.658Z,0.00
2019-05-03T01:37:39.650Z,0.00
2019-05-03T01:38:39.659Z,0.00
2019-05-03T01:39:39.613Z,0.00
2019-05-03T01:40:39.604Z,0.00
2019-05-03T01:41:41.594Z,0.00
2019-05-03T01:42:39.581Z,0.00
2019-05-03T01:43:39.591Z,0.00
2019-05-03T01:44:39.558Z,0.00
2019-05-03T01:45:39.551Z,0.00
2019-05-03T01:46:39.537Z,0.00
2019-05-03T01:47:39.529Z,0.00
2019-05-03T01:48:41.517Z,0.00
2019-05-03T01:49:39.507Z,0.00
2019-05-03T01:50:39.489Z,0.00
2019-05-03T01:51:39.476Z,0.00
2019-05-03T01:52:39.467Z,0.00
2019-05-03T01:53:41.565Z,0.00
2019-05-03T01:54:39.445Z,0.00
2019-05-03T01:55:45.970Z,0.00
2019-05-03T01:56:43.302Z,0.00
2019-05-03T01:57:41.906Z,0.00
2019-05-03T01:58:39.403Z,0.00
2019-05-03T01:59:39.407Z,0.00
2019-05-03T02:00:39.377Z,0.00
2019-05-03T02:01:39.403Z,0.00
2019-05-03T02:02:41.996Z,0.00
2019-05-03T02:03:39.348Z,0.00
2019-05-03T02:04:39.350Z,0.00
2019-05-03T02:05:39.337Z,0.00
2019-05-03T02:06:39.312Z,0.00
2019-05-03T02:07:39.302Z,0.00
2019-05-03T02:08:39.291Z,0.00
2019-05-03T02:09:39.336Z,0.00
2019-05-03T02:10:39.277Z,0.00
2019-05-03T02:11:39.254Z,0.00
2019-05-03T02:12:39.244Z,0.00
2019-05-03T02:13:39.233Z,0.00
2019-05-03T02:14:39.241Z,0.00
2019-05-03T02:15:39.214Z,0.00
2019-05-03T02:16:39.203Z,0.00
2019-05-03T02:17:39.190Z,0.00
2019-05-03T02:18:39.177Z,0.00
2019-05-03T02:19:39.191Z,0.00
2019-05-03T02:20:39.158Z,0.00
2019-05-03T02:21:39.158Z,0.00
2019-05-03T02:22:39.131Z,0.00
2019-05-03T02:23:39.122Z,0.00
2019-05-03T02:24:39.140Z,0.00
2019-05-03T02:25:39.110Z,0.00
2019-05-03T02:26:39.086Z,0.00
2019-05-03T02:27:39.077Z,0.00
2019-05-03T02:28:39.068Z,0.00
2019-05-03T02:29:39.054Z,0.00
2019-05-03T02:30:39.087Z,0.00
2019-05-03T02:31:39.033Z,0.00
2019-05-03T02:32:39.027Z,0.00
2019-05-03T02:33:39.030Z,0.00
2019-05-03T02:34:39.005Z,0.00
2019-05-03T02:35:39.013Z,0.00
2019-05-03T02:36:38.975Z,0.00
2019-05-03T02:37:38.967Z,0.00
2019-05-03T02:38:38.954Z,0.00
2019-05-03T02:39:38.946Z,0.00
2019-05-03T02:40:38.948Z,0.00
2019-05-03T02:41:38.925Z,0.00
2019-05-03T02:42:38.918Z,0.00
2019-05-03T02:43:38.902Z,0.00
2019-05-03T02:44:38.895Z,0.00
2019-05-03T02:45:38.904Z,0.00
2019-05-03T02:46:38.867Z,0.00
2019-05-03T02:47:38.855Z,0.00
2019-05-03T02:48:38.849Z,0.00
2019-05-03T02:49:38.836Z,0.00
2019-05-03T02:50:38.853Z,0.00
2019-05-03T02:51:38.808Z,0.00
2019-05-03T02:52:38.803Z,0.00
2019-05-03T02:53:38.792Z,0.00
2019-05-03T02:54:38.774Z,0.00
2019-05-03T02:55:38.784Z,0.00
2019-05-03T02:56:38.765Z,0.00
2019-05-03T02:57:38.744Z,0.00
2019-05-03T02:58:38.730Z,0.00
2019-05-03T02:59:38.722Z,0.00
2019-05-03T03:00:38.788Z,0.00
2019-05-03T03:01:38.709Z,0.00
2019-05-03T03:02:38.699Z,0.00
2019-05-03T03:03:38.679Z,0.00
2019-05-03T03:04:38.669Z,0.00
2019-05-03T03:05:38.684Z,4.00
2019-05-03T03:06:38.655Z,4.00
2019-05-03T03:07:38.644Z,0.00
2019-05-03T03:08:38.621Z,4.00
2019-05-03T03:09:38.619Z,4.00
2019-05-03T03:10:38.656Z,0.00
2019-05-03T03:11:38.589Z,4.00
2019-05-03T03:12:38.583Z,4.00
2019-05-03T03:13:38.566Z,8.00
2019-05-03T03:14:38.554Z,8.00
2019-05-03T03:15:38.563Z,8.00
2019-05-03T03:16:38.543Z,8.00
2019-05-03T03:17:38.539Z,12.00
2019-05-03T03:18:38.513Z,12.00
2019-05-03T03:19:38.506Z,12.00
2019-05-03T03:20:38.524Z,16.00
2019-05-03T03:21:38.498Z,20.00
2019-05-03T03:22:38.464Z,20.00
2019-05-03T03:23:38.461Z,24.00
2019-05-03T03:24:38.448Z,24.00
2019-05-03T03:25:38.513Z,28.00
2019-05-03T03:26:42.720Z,28.00
2019-05-03T03:27:38.504Z,24.00
2019-05-03T03:28:38.480Z,32.00
2019-05-03T03:29:38.393Z,40.00
2019-05-03T03:30:38.777Z,48.00
2019-05-03T03:31:38.420Z,52.00
2019-05-03T03:32:39.046Z,56.00
2019-05-03T03:33:40.250Z,64.00
2019-05-03T03:34:39.273Z,68.00
2019-05-03T03:35:38.834Z,72.00
2019-05-03T03:36:54.617Z,76.00
2019-05-03T03:37:38.303Z,88.00
2019-05-03T03:38:38.287Z,92.00
2019-05-03T03:39:38.273Z,104.00
2019-05-03T03:40:38.269Z,108.00
2019-05-03T03:41:38.277Z,112.00
2019-05-03T03:42:38.249Z,120.00
2019-05-03T03:43:38.235Z,128.00
2019-05-03T03:44:38.225Z,140.00
2019-05-03T03:45:38.215Z,148.00
2019-05-03T03:46:38.223Z,156.00
2019-05-03T03:47:38.196Z,164.00
2019-05-03T03:48:38.185Z,176.00
2019-05-03T03:49:38.168Z,184.00
2019-05-03T03:50:38.155Z,184.00
2019-05-03T03:51:38.161Z,196.00
2019-05-03T03:52:38.141Z,200.00
2019-05-03T03:53:38.119Z,204.00
2019-05-03T03:54:38.108Z,220.00
2019-05-03T03:55:38.100Z,228.00
2019-05-03T03:56:54.520Z,240.00
2019-05-03T03:57:39.074Z,252.00
2019-05-03T03:58:38.068Z,256.00
2019-05-03T03:59:38.055Z,268.00
2019-05-03T04:00:38.044Z,272.00
2019-05-03T04:01:38.063Z,288.00
2019-05-03T04:02:38.021Z,300.00
2019-05-03T04:03:38.009Z,308.00
2019-05-03T04:04:37.995Z,328.00
2019-05-03T04:05:37.988Z,332.00
2019-05-03T04:06:38.000Z,352.00
2019-05-03T04:07:37.967Z,360.00
2019-05-03T04:08:37.980Z,368.00
2019-05-03T04:09:37.963Z,376.00
2019-05-03T04:10:37.930Z,384.00
2019-05-03T04:11:37.968Z,400.00
2019-05-03T04:12:37.910Z,424.00
2019-05-03T04:13:37.935Z,428.00
2019-05-03T04:14:37.898Z,460.00
2019-05-03T04:15:37.874Z,488.00
2019-05-03T04:16:37.865Z,504.00
2019-05-03T04:17:37.873Z,540.00
2019-05-03T04:18:37.843Z,548.00
2019-05-03T04:19:37.839Z,568.00
2019-05-03T04:20:37.816Z,600.00
2019-05-03T04:21:37.815Z,640.00
2019-05-03T04:22:37.816Z,680.00
2019-05-03T04:23:37.783Z,688.00
2019-05-03T04:24:37.775Z,704.00
2019-05-03T04:25:37.772Z,724.00
2019-05-03T04:26:37.753Z,732.00
2019-05-03T04:27:37.759Z,744.00
2019-05-03T04:28:37.725Z,752.00
2019-05-03T04:29:37.716Z,788.00
2019-05-03T04:30:37.722Z,792.00
2019-05-03T04:31:37.698Z,852.00
2019-05-03T04:32:37.705Z,884.00
2019-05-03T04:33:37.677Z,960.00
2019-05-03T04:34:37.669Z,1028.00
2019-05-03T04:35:37.651Z,1088.00
2019-05-03T04:36:37.644Z,1136.00
2019-05-03T04:37:37.655Z,1136.00
2019-05-03T04:38:37.617Z,1128.00
2019-05-03T04:39:37.610Z,1116.00
2019-05-03T04:40:37.610Z,1104.00
2019-05-03T04:41:37.603Z,1104.00
2019-05-03T04:42:37.597Z,1116.00
2019-05-03T04:43:37.560Z,1044.00
2019-05-03T04:44:37.555Z,1024.00
2019-05-03T04:45:37.568Z,1016.00
2019-05-03T04:46:37.532Z,1036.00
2019-05-03T04:47:37.537Z,1068.00
2019-05-03T04:48:37.508Z,1112.00
2019-05-03T04:49:37.495Z,1156.00
2019-05-03T04:50:37.497Z,1208.00
2019-05-03T04:51:37.475Z,1224.00
2019-05-03T04:52:37.500Z,1332.00
2019-05-03T04:53:37.457Z,1444.00
2019-05-03T04:54:37.541Z,1476.00
2019-05-03T04:55:37.444Z,1460.00
2019-05-03T04:56:37.423Z,1532.00
2019-05-03T04:57:45.027Z,1716.00
2019-05-03T04:58:38.413Z,1680.00
2019-05-03T04:59:37.382Z,1512.00
2019-05-03T05:00:37.374Z,1468.00
2019-05-03T05:01:37.364Z,1440.00
2019-05-03T05:02:37.363Z,1580.00
2019-05-03T05:03:37.358Z,1492.00
2019-05-03T05:04:37.341Z,1392.00
2019-05-03T05:05:37.318Z,1444.00
2019-05-03T05:06:37.304Z,1624.00
2019-05-03T05:07:37.294Z,1600.00
2019-05-03T05:08:37.305Z,1584.00
2019-05-03T05:09:37.279Z,1680.00
2019-05-03T05:10:37.262Z,1736.00
2019-05-03T05:11:37.251Z,1808.00
2019-05-03T05:12:37.246Z,1932.00
2019-05-03T05:13:37.245Z,1988.00
2019-05-03T05:14:37.215Z,2016.00
2019-05-03T05:15:37.207Z,2104.00
2019-05-03T05:16:39.681Z,2072.00
2019-05-03T05:17:37.181Z,1884.00
2019-05-03T05:18:38.317Z,1716.00
2019-05-03T05:19:38.319Z,1632.00
2019-05-03T05:20:37.152Z,1612.00
2019-05-03T05:21:37.147Z,1636.00
2019-05-03T05:22:37.125Z,1704.00
2019-05-03T05:23:37.351Z,1648.00
2019-05-03T05:24:37.108Z,1460.00
2019-05-03T05:25:37.096Z,1340.00
2019-05-03T05:26:37.097Z,1448.00
2019-05-03T05:27:48.354Z,1480.00
2019-05-03T05:28:38.093Z,1412.00
2019-05-03T05:29:37.054Z,1392.00
2019-05-03T05:30:37.044Z,1448.00
2019-05-03T05:31:37.048Z,1608.00
2019-05-03T05:32:37.029Z,1672.00
2019-05-03T05:33:37.003Z,1728.00
2019-05-03T05:34:37.009Z,1784.00
2019-05-03T05:35:37.002Z,1744.00
2019-05-03T05:36:36.975Z,1684.00
2019-05-03T05:37:36.962Z,1648.00
2019-05-03T05:38:36.960Z,1640.00
2019-05-03T05:39:36.977Z,1672.00
2019-05-03T05:40:36.928Z,1684.00
2019-05-03T05:41:36.926Z,1696.00
2019-05-03T05:42:36.902Z,1728.00
2019-05-03T05:43:36.906Z,1748.00
2019-05-03T05:44:36.903Z,1796.00
2019-05-03T05:45:36.869Z,1824.00
2019-05-03T05:46:36.864Z,1844.00
2019-05-03T05:47:36.866Z,1816.00
2019-05-03T05:48:36.839Z,1828.00
2019-05-03T05:49:36.843Z,1728.00
2019-05-03T05:50:36.810Z,1664.00
2019-05-03T05:51:36.806Z,1772.00
2019-05-03T05:52:36.796Z,1548.00
2019-05-03T05:53:36.776Z,1796.00
2019-05-03T05:54:36.784Z,1916.00
2019-05-03T05:55:36.753Z,1964.00
2019-05-03T05:56:36.747Z,1956.00
2019-05-03T05:57:36.733Z,1300.00
2019-05-03T05:58:36.735Z,2008.00
2019-05-03T05:59:36.743Z,1972.00
2019-05-03T06:00:36.713Z,2072.00
2019-05-03T06:01:36.691Z,1976.00
2019-05-03T06:02:36.682Z,1860.00
2019-05-03T06:03:36.670Z,1668.00
2019-05-03T06:04:36.686Z,1356.00
2019-05-03T06:05:36.651Z,1368.00
2019-05-03T06:06:36.644Z,1588.00
2019-05-03T06:07:36.629Z,2376.00
2019-05-03T06:08:36.611Z,2088.00
2019-05-03T06:09:36.636Z,2116.00
2019-05-03T06:10:36.586Z,2124.00
2019-05-03T06:11:36.591Z,2200.00
2019-05-03T06:12:36.565Z,2208.00
2019-05-03T06:13:36.558Z,2288.00
2019-05-03T06:14:36.576Z,2260.00
2019-05-03T06:15:36.550Z,2392.00
2019-05-03T06:16:36.523Z,2592.00
2019-05-03T06:17:36.521Z,2272.00
2019-05-03T06:18:36.505Z,2296.00
2019-05-03T06:19:36.513Z,2308.00
2019-05-03T06:20:36.480Z,2384.00
2019-05-03T06:21:36.480Z,2352.00
2019-05-03T06:22:36.455Z,2284.00
2019-05-03T06:23:36.481Z,2768.00
2019-05-03T06:24:36.473Z,1744.00
2019-05-03T06:25:36.423Z,2496.00
2019-05-03T06:26:36.506Z,3892.00
2019-05-03T06:27:36.399Z,2660.00
2019-05-03T06:28:36.395Z,2740.00
2019-05-03T06:29:36.421Z,2692.00
2019-05-03T06:30:36.369Z,2964.00
2019-05-03T06:31:36.355Z,3220.00
2019-05-03T06:32:36.344Z,3952.00
2019-05-03T06:33:36.337Z,3548.00
2019-05-03T06:34:36.341Z,2992.00
2019-05-03T06:35:36.311Z,3236.00
2019-05-03T06:36:36.300Z,2920.00
2019-05-03T06:37:36.287Z,2944.00
2019-05-03T06:38:36.282Z,3612.00
2019-05-03T06:39:36.288Z,3720.00
2019-05-03T06:40:36.270Z,3028.00
2019-05-03T06:41:36.244Z,2916.00
2019-05-03T06:42:36.237Z,2324.00
2019-05-03T06:43:39.578Z,2604.00
2019-05-03T06:44:37.246Z,3360.00
2019-05-03T06:45:36.204Z,4052.00
2019-05-03T06:46:36.206Z,2456.00
2019-05-03T06:47:40.211Z,4696.00
2019-05-03T06:48:37.211Z,5452.00
2019-05-03T06:49:39.316Z,5520.00
2019-05-03T06:50:37.164Z,4828.00
2019-05-03T06:51:39.946Z,2356.00
2019-05-03T06:52:37.122Z,3576.00
2019-05-03T06:53:36.141Z,5132.00
2019-05-03T06:54:37.901Z,5560.00
2019-05-03T06:55:39.988Z,4220.00
2019-05-03T06:56:37.079Z,3572.00
2019-05-03T06:57:40.132Z,3860.00
2019-05-03T06:58:37.056Z,4344.00
2019-05-03T06:59:36.043Z,4820.00
2019-05-03T07:00:36.068Z,4752.00
2019-05-03T07:01:36.029Z,4168.00
2019-05-03T07:02:36.016Z,3776.00
2019-05-03T07:03:36.001Z,3732.00
2019-05-03T07:04:35.987Z,4440.00
2019-05-03T07:05:35.994Z,4128.00
2019-05-03T07:06:40.326Z,3452.00
2019-05-03T07:07:35.967Z,3932.00
2019-05-03T07:08:35.946Z,5300.00
2019-05-03T07:09:35.935Z,2784.00
2019-05-03T07:10:35.945Z,5508.00
2019-05-03T07:11:35.915Z,4624.00
2019-05-03T07:12:35.903Z,4652.00
2019-05-03T07:13:35.893Z,3296.00
2019-05-03T07:14:35.882Z,3952.00
2019-05-03T07:15:35.884Z,2668.00
2019-05-03T07:16:35.856Z,4016.00
2019-05-03T07:17:35.842Z,3528.00
2019-05-03T07:18:35.829Z,3448.00
2019-05-03T07:19:35.817Z,3912.00
2019-05-03T07:20:35.823Z,3860.00
2019-05-03T07:21:35.795Z,5268.00
2019-05-03T07:22:35.788Z,5072.00
2019-05-03T07:23:35.776Z,5500.00
2019-05-03T07:24:40.577Z,5800.00
2019-05-03T07:25:36.785Z,6048.00
2019-05-03T07:26:35.747Z,5672.00
2019-05-03T07:27:35.728Z,6428.00
2019-05-03T07:28:46.468Z,7016.00
2019-05-03T07:29:36.718Z,4792.00
2019-05-03T07:30:37.076Z,4248.00
2019-05-03T07:31:35.722Z,4444.00
2019-05-03T07:32:35.685Z,4416.00
2019-05-03T07:33:35.661Z,5576.00
2019-05-03T07:34:35.658Z,5672.00
2019-05-03T07:35:35.640Z,6284.00
2019-05-03T07:36:35.787Z,6536.00
2019-05-03T07:37:35.626Z,5604.00
2019-05-03T07:38:35.611Z,4352.00
2019-05-03T07:39:35.598Z,3676.00
2019-05-03T07:40:35.589Z,4176.00
2019-05-03T07:41:35.753Z,5472.00
2019-05-03T07:42:35.563Z,6280.00
2019-05-03T07:43:36.184Z,7036.00
2019-05-03T07:44:35.563Z,6516.00
2019-05-03T07:45:35.551Z,6636.00
2019-05-03T07:46:35.553Z,4160.00
2019-05-03T07:47:35.529Z,4624.00
2019-05-03T07:48:35.546Z,5268.00
2019-05-03T07:49:35.839Z,7096.00
2019-05-03T07:50:35.783Z,6396.00
2019-05-03T07:51:35.498Z,7104.00
2019-05-03T07:52:35.455Z,6552.00
2019-05-03T07:53:35.441Z,4412.00
2019-05-03T07:54:35.430Z,3948.00
2019-05-03T07:55:35.425Z,5324.00
2019-05-03T07:56:35.653Z,5280.00
2019-05-03T07:57:35.771Z,4524.00
2019-05-03T07:58:35.401Z,2848.00
2019-05-03T07:59:35.679Z,3696.00
2019-05-03T08:00:35.365Z,5340.00
2019-05-03T08:01:35.724Z,5336.00
2019-05-03T08:02:35.993Z,4232.00
2019-05-03T08:03:35.327Z,6572.00
2019-05-03T08:04:35.908Z,6872.00
2019-05-03T08:05:35.303Z,7096.00
2019-05-03T08:06:35.303Z,5204.00
2019-05-03T08:07:35.726Z,6752.00
2019-05-03T08:08:35.562Z,6516.00
2019-05-03T08:09:35.270Z,5572.00
2019-05-03T08:10:35.260Z,3252.00
2019-05-03T08:11:35.319Z,4096.00
2019-05-03T08:12:35.247Z,4960.00
2019-05-03T08:13:35.707Z,4636.00
2019-05-03T08:14:35.654Z,4952.00
2019-05-03T08:15:35.196Z,6192.00
2019-05-03T08:16:35.430Z,6368.00
2019-05-03T08:17:35.207Z,9312.00
2019-05-03T08:18:35.542Z,7324.00
2019-05-03T08:19:35.770Z,4736.00
2019-05-03T08:20:35.174Z,4548.00
2019-05-03T08:21:37.768Z,3764.00
2019-05-03T08:22:35.116Z,3916.00
2019-05-03T08:23:35.478Z,3292.00
2019-05-03T08:24:35.089Z,3548.00
2019-05-03T08:25:35.506Z,5080.00
2019-05-03T08:26:35.234Z,4604.00
2019-05-03T08:27:35.435Z,3696.00
2019-05-03T08:28:35.050Z,5212.00
2019-05-03T08:29:35.361Z,5504.00
2019-05-03T08:30:35.418Z,5628.00
2019-05-03T08:31:35.401Z,7716.00
2019-05-03T08:32:35.384Z,8136.00
2019-05-03T08:33:35.547Z,6860.00
2019-05-03T08:34:35.062Z,5960.00
2019-05-03T08:35:35.603Z,6472.00
2019-05-03T08:36:35.022Z,6936.00
2019-05-03T08:37:35.016Z,6644.00
2019-05-03T08:38:34.962Z,5568.00
2019-05-03T08:39:35.555Z,5048.00
2019-05-03T08:40:35.119Z,4852.00
2019-05-03T08:41:35.226Z,4840.00
2019-05-03T08:42:35.231Z,6192.00
2019-05-03T08:43:35.815Z,7016.00
2019-05-03T08:44:35.462Z,7152.00
2019-05-03T08:45:34.860Z,7296.00
2019-05-03T08:46:35.583Z,9396.00
2019-05-03T08:47:34.835Z,7348.00
2019-05-03T08:48:35.511Z,5588.00
2019-05-03T08:49:34.987Z,3440.00
2019-05-03T08:50:34.943Z,3984.00
2019-05-03T08:51:35.248Z,4792.00
2019-05-03T08:52:34.897Z,5556.00
2019-05-03T08:53:35.780Z,7420.00
2019-05-03T08:54:34.959Z,10088.00
2019-05-03T08:55:35.320Z,8912.00
2019-05-03T08:56:34.950Z,6800.00
2019-05-03T08:57:35.433Z,8036.00
2019-05-03T08:58:34.924Z,7308.00
2019-05-03T08:59:35.738Z,6072.00
2019-05-03T09:00:35.335Z,6716.00
2019-05-03T09:01:36.456Z,6928.00
2019-05-03T09:02:34.711Z,6340.00
2019-05-03T09:04:38.122Z,7216.00
2019-05-03T09:05:17.050Z,5196.00
2019-05-03T09:05:35.996Z,8632.00
2019-05-03T09:06:35.505Z,8544.00
2019-05-03T09:07:35.491Z,8836.00
2019-05-03T09:08:35.360Z,10532.00
2019-05-03T09:09:34.945Z,9408.00
2019-05-03T09:10:35.243Z,7412.00
2019-05-03T09:11:36.850Z,6540.00
2019-05-03T09:12:34.554Z,6368.00
2019-05-03T09:13:34.547Z,6328.00
2019-05-03T09:14:41.839Z,6012.00
2019-05-03T09:15:35.547Z,6240.00
2019-05-03T09:16:35.581Z,8032.00
2019-05-03T09:17:35.348Z,9912.00
2019-05-03T09:18:35.158Z,8108.00
2019-05-03T09:19:34.804Z,6328.00
2019-05-03T09:20:35.616Z,5572.00
2019-05-03T09:21:34.829Z,7716.00
2019-05-03T09:22:34.876Z,8068.00
2019-05-03T09:23:35.665Z,9712.00
2019-05-03T09:24:35.117Z,9572.00
2019-05-03T09:25:35.518Z,8668.00
2019-05-03T09:26:34.947Z,6664.00
2019-05-03T09:27:34.489Z,8228.00
2019-05-03T09:28:34.931Z,7984.00
2019-05-03T09:29:41.091Z,6740.00
2019-05-03T09:30:35.816Z,6804.00
2019-05-03T09:31:35.238Z,6772.00
2019-05-03T09:32:35.000Z,6872.00
2019-05-03T09:33:35.651Z,9420.00
2019-05-03T09:34:35.080Z,10644.00
2019-05-03T09:35:35.972Z,10916.00
2019-05-03T09:36:34.554Z,11332.00
2019-05-03T09:37:35.412Z,10956.00
2019-05-03T09:38:34.995Z,8248.00
2019-05-03T09:39:35.512Z,6944.00
2019-05-03T09:40:35.202Z,5448.00
2019-05-03T09:41:34.816Z,5008.00
2019-05-03T09:42:35.231Z,6596.00
2019-05-03T09:43:35.694Z,8532.00
2019-05-03T09:44:34.996Z,8500.00
2019-05-03T09:45:35.304Z,7880.00
2019-05-03T09:46:35.415Z,8324.00
2019-05-03T09:47:35.360Z,7992.00
2019-05-03T09:48:34.784Z,8864.00
2019-05-03T09:49:34.779Z,9012.00
2019-05-03T09:50:35.930Z,9528.00
2019-05-03T09:51:34.993Z,9032.00
2019-05-03T09:52:35.519Z,8636.00
2019-05-03T09:53:35.107Z,8408.00
2019-05-03T09:54:34.750Z,8168.00
2019-05-03T09:55:35.495Z,8616.00
2019-05-03T09:56:34.596Z,11076.00
2019-05-03T09:57:34.751Z,14508.00
2019-05-03T09:58:36.428Z,12724.00
2019-05-03T09:59:35.047Z,9964.00
2019-05-03T10:00:34.031Z,9696.00
2019-05-03T10:01:34.837Z,8608.00
2019-05-03T10:02:35.316Z,9968.00
2019-05-03T10:03:33.984Z,9440.00
2019-05-03T10:04:36.369Z,8768.00
2019-05-03T10:05:35.121Z,10120.00
2019-05-03T10:06:35.861Z,9864.00
2019-05-03T10:07:35.070Z,10004.00
2019-05-03T10:08:35.831Z,12652.00
2019-05-03T10:09:35.330Z,105504.00
2019-05-03T10:10:35.681Z,110112.00
2019-05-03T10:11:35.114Z,109408.00
2019-05-03T10:12:33.913Z,113952.00
2019-05-03T10:13:35.460Z,11628.00
2019-05-03T10:14:33.865Z,7144.00
2019-05-03T10:15:33.858Z,6024.00
2019-05-03T10:16:35.113Z,6220.00
2019-05-03T10:17:35.142Z,5208.00
2019-05-03T10:18:34.907Z,4288.00
2019-05-03T10:19:39.949Z,4836.00
2019-05-03T10:20:34.921Z,6380.00
2019-05-03T10:21:35.569Z,6140.00
2019-05-03T10:22:34.904Z,9472.00
2019-05-03T10:23:35.695Z,21536.00
2019-05-03T10:24:35.104Z,106208.00
2019-05-03T10:25:35.715Z,97568.00
2019-05-03T10:26:35.603Z,96288.00
2019-05-03T10:27:34.685Z,83264.00
2019-05-03T10:28:33.717Z,86624.00
2019-05-03T10:29:33.709Z,92160.00
2019-05-03T10:30:35.467Z,85472.00
2019-05-03T10:31:35.458Z,84128.00
2019-05-03T10:32:35.476Z,13848.00
2019-05-03T10:33:35.571Z,96032.00
2019-05-03T10:34:35.324Z,87680.00
2019-05-03T10:35:35.318Z,60864.00
2019-05-03T10:36:35.492Z,10236.00
2019-05-03T10:37:35.694Z,11048.00
2019-05-03T10:38:33.615Z,11656.00
2019-05-03T10:39:33.590Z,13808.00
2019-05-03T10:40:35.572Z,12880.00
2019-05-03T10:41:34.808Z,22752.00
2019-05-03T10:42:35.323Z,7964.00
2019-05-03T10:43:35.455Z,6840.00
2019-05-03T10:44:35.813Z,9760.00
2019-05-03T10:45:35.462Z,61760.00
2019-05-03T10:46:34.474Z,31904.00
2019-05-03T10:47:34.929Z,83648.00
2019-05-03T10:48:35.511Z,87296.00
2019-05-03T10:49:35.162Z,100544.00
2019-05-03T10:50:34.811Z,100416.00
2019-05-03T10:51:35.799Z,21920.00
2019-05-03T10:52:34.886Z,21376.00
2019-05-03T10:53:34.589Z,50592.00
2019-05-03T10:54:35.578Z,97984.00
2019-05-03T10:55:35.626Z,94976.00
2019-05-03T10:56:35.632Z,100480.00
2019-05-03T10:57:35.434Z,64864.00
2019-05-03T10:58:35.556Z,9668.00
2019-05-03T10:59:35.416Z,7720.00
2019-05-03T11:00:46.340Z,6360.00
2019-05-03T11:01:35.928Z,5632.00
2019-05-03T11:02:35.105Z,5032.00
2019-05-03T11:03:34.336Z,4292.00
2019-05-03T11:04:35.463Z,4664.00
2019-05-03T11:05:34.827Z,5412.00
2019-05-03T11:06:35.375Z,4508.00
2019-05-03T11:07:34.588Z,5588.00
2019-05-03T11:08:33.332Z,10216.00
2019-05-03T11:09:48.054Z,73056.00
2019-05-03T11:10:34.248Z,14984.00
2019-05-03T11:11:35.206Z,10944.00
2019-05-03T11:12:34.751Z,13516.00
2019-05-03T11:13:34.973Z,14848.00
2019-05-03T11:14:35.055Z,9668.00
2019-05-03T11:15:34.967Z,10116.00
2019-05-03T11:16:35.148Z,14628.00
2019-05-03T11:17:34.805Z,21728.00
2019-05-03T11:18:34.600Z,42496.00
2019-05-03T11:19:34.746Z,29184.00
2019-05-03T11:20:34.614Z,27328.00
2019-05-03T11:21:34.767Z,13512.00
2019-05-03T11:22:34.931Z,58688.00
2019-05-03T11:23:34.668Z,11428.00
2019-05-03T11:24:34.838Z,7600.00
2019-05-03T11:25:34.446Z,7560.00
2019-05-03T11:26:34.937Z,27712.00
2019-05-03T11:27:35.269Z,18752.00
2019-05-03T11:28:35.239Z,11052.00
2019-05-03T11:29:33.029Z,7936.00
2019-05-03T11:30:33.027Z,6708.00
2019-05-03T11:31:35.320Z,5788.00
2019-05-03T11:32:35.140Z,5520.00
2019-05-03T11:33:32.992Z,5804.00
2019-05-03T11:34:35.326Z,5784.00
2019-05-03T11:35:34.967Z,6540.00
2019-05-03T11:36:34.768Z,11236.00
2019-05-03T11:37:34.643Z,8000.00
2019-05-03T11:38:34.816Z,10052.00
2019-05-03T11:39:34.420Z,18272.00
2019-05-03T11:40:34.591Z,97440.00
2019-05-03T11:41:32.999Z,99904.00
2019-05-03T11:42:32.897Z,95872.00
2019-05-03T11:43:34.888Z,88608.00
2019-05-03T11:44:32.892Z,90624.00
2019-05-03T11:45:35.163Z,86720.00
2019-05-03T11:46:32.854Z,84928.00
2019-05-03T11:47:34.681Z,80384.00
2019-05-03T11:48:34.755Z,80448.00
2019-05-03T11:49:34.491Z,79456.00
2019-05-03T11:50:34.637Z,94176.00
2019-05-03T11:51:32.803Z,90624.00
2019-05-03T11:52:35.345Z,40512.00
2019-05-03T11:53:32.773Z,25472.00
2019-05-03T11:54:32.786Z,11904.00
2019-05-03T11:55:35.070Z,6540.00
2019-05-03T11:56:32.731Z,3812.00
2019-05-03T11:57:32.732Z,3104.00
2019-05-03T11:58:34.258Z,3000.00
2019-05-03T11:59:34.439Z,3400.00
2019-05-03T12:00:32.700Z,3852.00
2019-05-03T12:01:32.677Z,4356.00
2019-05-03T12:02:32.670Z,5652.00
2019-05-03T12:03:32.683Z,60960.00
2019-05-03T12:04:32.691Z,14736.00
2019-05-03T12:05:32.653Z,13584.00
2019-05-03T12:06:32.621Z,38048.00
2019-05-03T12:07:38.991Z,22208.00
2019-05-03T12:08:34.591Z,58496.00
2019-05-03T12:09:32.593Z,23200.00
2019-05-03T12:10:50.551Z,20512.00
2019-05-03T12:11:33.571Z,21984.00
2019-05-03T12:12:32.559Z,21952.00
2019-05-03T12:13:32.546Z,20352.00
2019-05-03T12:14:34.527Z,19136.00
2019-05-03T12:15:32.555Z,17408.00
2019-05-03T12:17:08.575Z,14916.00
2019-05-03T12:17:34.940Z,14072.00
2019-05-03T12:18:47.899Z,14504.00
2019-05-03T12:19:36.279Z,16320.00
2019-05-03T12:20:34.132Z,16736.00
2019-05-03T12:21:33.441Z,18880.00
2019-05-03T12:22:32.834Z,20352.00
2019-05-03T12:23:33.089Z,20128.00